Main page
METAR-TAF:

METAR-TAF

Airports :

Oil platform

Heimdal, Norway

latitude: 59-34-12N, longitude: 2-13-48E, elevation: 10 m

Current weather observation

The report was made 33 minutes ago, at 07:20 UTC
Wind 29 kt from the South
Temperature 15°C
Humidity 82%
Pressure 993 hPa
Visibility 10 km or more
Few clouds at a height of 2000 ft

METAR: ENHM 180720Z 17029KT 9999 FEW020 15/12 Q0993 W16/S4

Time: 09:53 (07:53 UTC)

Forecast

The report was made 59 minutes ago, at 06:54 UTC
Forecast valid from 18 at 06 UTC to 18 at 15 UTC
Wind 30 kt from the South
Visibility 10 km or more
Few clouds at a height of 2000 ft
Broken clouds at a height of 8000 ft
Temporary
from 18 at 06 UTC to 18 at 15 UTC
Broken clouds at a height of 1200 ft, Cumulonimbus.
rain showers
Probability 40% :
Temporary
from 18 at 06 UTC to 18 at 10 UTC

TAF: ENHM 180654Z 1806/1815 18030KT 9999 FEW020 BKN080 TEMPO 1806/1815 SHRA BKN012CB PROB40 TEMPO 1806/1810

Weather observations and forecasts of more than 4000 airports (METAR and TAF reports).

The available stations are represented by yellow and red dots on the map.

Hover mouse over dot to see the name of the station.

Then click to see weather observations and forecasts.

To change the map : click on the green buttons with a black cross to zoom in, on the green button with a dash to zoom out, or on the green arrows for adjacent maps.


METAR-TAF: